sensor_id;sensor_type;location;lat;lon;timestamp;temperature;humidity
67893;DHT22;54688;52.376;16.744;2023-03-01T00:00:08;-5.1;77.7
67893;DHT22;54688;52.376;16.744;2023-03-01T00:03:55;-5.1;77.8
67893;DHT22;54688;52.376;16.744;2023-03-01T00:06:57;-5.1;77.8
67893;DHT22;54688;52.376;16.744;2023-03-01T00:09:59;-5.1;78.3
67893;DHT22;54688;52.376;16.744;2023-03-01T00:13:01;-5.1;78.2
67893;DHT22;54688;52.376;16.744;2023-03-01T00:16:04;-5.1;78
67893;DHT22;54688;52.376;16.744;2023-03-01T00:19:09;-5.1;77.9
67893;DHT22;54688;52.376;16.744;2023-03-01T00:22:14;-5.1;77.9
67893;DHT22;54688;52.376;16.744;2023-03-01T00:25:17;-5.2;77.2
67893;DHT22;54688;52.376;16.744;2023-03-01T00:28:19;-5.3;76.8
67893;DHT22;54688;52.376;16.744;2023-03-01T00:31:23;-5.3;76.8
67893;DHT22;54688;52.376;16.744;2023-03-01T00:34:27;-5.4;77
67893;DHT22;54688;52.376;16.744;2023-03-01T00:37:29;-5.4;76.9
67893;DHT22;54688;52.376;16.744;2023-03-01T00:40:32;-5.4;77.3
67893;DHT22;54688;52.376;16.744;2023-03-01T00:43:35;-5.5;77.5
67893;DHT22;54688;52.376;16.744;2023-03-01T00:46:38;-5.5;77.7
67893;DHT22;54688;52.376;16.744;2023-03-01T00:49:41;-5.5;77.9
67893;DHT22;54688;52.376;16.744;2023-03-01T00:52:44;-5.4;77.8
67893;DHT22;54688;52.376;16.744;2023-03-01T00:55:47;-5.5;77.9
67893;DHT22;54688;52.376;16.744;2023-03-01T00:58:49;-5.5;77.9
67893;DHT22;54688;52.376;16.744;2023-03-01T01:01:52;-5.5;78
67893;DHT22;54688;52.376;16.744;2023-03-01T01:04:54;-5.5;78
67893;DHT22;54688;52.376;16.744;2023-03-01T01:07:56;-5.6;77.7
67893;DHT22;54688;52.376;16.744;2023-03-01T01:10:59;-5.6;77.4
67893;DHT22;54688;52.376;16.744;2023-03-01T01:16:59;-5.7;77.1
67893;DHT22;54688;52.376;16.744;2023-03-01T01:20:03;-5.8;76.7
67893;DHT22;54688;52.376;16.744;2023-03-01T01:23:06;-5.8;76.9
67893;DHT22;54688;52.376;16.744;2023-03-01T01:26:10;-5.9;76.4
67893;DHT22;54688;52.376;16.744;2023-03-01T01:29:14;-6;76.3
67893;DHT22;54688;52.376;16.744;2023-03-01T01:32:16;-6;76.2
67893;DHT22;54688;52.376;16.744;2023-03-01T01:35:18;-6;75.9
67893;DHT22;54688;52.376;16.744;2023-03-01T01:38:20;-6.1;75.8
67893;DHT22;54688;52.376;16.744;2023-03-01T01:41:23;-6.1;76.3
67893;DHT22;54688;52.376;16.744;2023-03-01T01:44:27;-6.1;75.8
67893;DHT22;54688;52.376;16.744;2023-03-01T01:47:30;-6.2;75.6
67893;DHT22;54688;52.376;16.744;2023-03-01T01:50:33;-6.2;75.8
67893;DHT22;54688;52.376;16.744;2023-03-01T01:53:37;-6.2;76.1
67893;DHT22;54688;52.376;16.744;2023-03-01T01:56:41;-6.3;75.7
67893;DHT22;54688;52.376;16.744;2023-03-01T01:59:50;-6.3;75.4
67893;DHT22;54688;52.376;16.744;2023-03-01T02:02:55;-6.4;75.6
67893;DHT22;54688;52.376;16.744;2023-03-01T02:06:01;-6.4;75.3
67893;DHT22;54688;52.376;16.744;2023-03-01T02:09:08;-6.4;75.7
67893;DHT22;54688;52.376;16.744;2023-03-01T02:12:15;-6.5;75.6
67893;DHT22;54688;52.376;16.744;2023-03-01T02:15:19;-6.5;75.7
67893;DHT22;54688;52.376;16.744;2023-03-01T02:18:22;-6.5;75.6
67893;DHT22;54688;52.376;16.744;2023-03-01T02:21:29;-6.5;75.8
67893;DHT22;54688;52.376;16.744;2023-03-01T02:24:39;-6.5;75.6
67893;DHT22;54688;52.376;16.744;2023-03-01T02:27:52;-6.6;75.1
67893;DHT22;54688;52.376;16.744;2023-03-01T02:30:58;-6.6;75.6
67893;DHT22;54688;52.376;16.744;2023-03-01T02:34:01;-6.6;76.9
67893;DHT22;54688;52.376;16.744;2023-03-01T02:37:04;-6.5;78
67893;DHT22;54688;52.376;16.744;2023-03-01T02:40:10;-6.4;77.1
67893;DHT22;54688;52.376;16.744;2023-03-01T02:43:17;-6.5;77
67893;DHT22;54688;52.376;16.744;2023-03-01T02:49:23;-6.4;77.8
67893;DHT22;54688;52.376;16.744;2023-03-01T02:52:28;-6.4;78.8
67893;DHT22;54688;52.376;16.744;2023-03-01T02:55:36;-6.3;78.6
67893;DHT22;54688;52.376;16.744;2023-03-01T02:58:39;-6.3;78.1
67893;DHT22;54688;52.376;16.744;2023-03-01T03:01:42;-6.3;78.6
67893;DHT22;54688;52.376;16.744;2023-03-01T03:04:45;-6.3;78.6
67893;DHT22;54688;52.376;16.744;2023-03-01T03:07:47;-6.3;78.4
67893;DHT22;54688;52.376;16.744;2023-03-01T03:10:50;-6.3;78.2
67893;DHT22;54688;52.376;16.744;2023-03-01T03:13:52;-6.3;77.8
67893;DHT22;54688;52.376;16.744;2023-03-01T03:16:55;-6.3;77.7
67893;DHT22;54688;52.376;16.744;2023-03-01T03:19:57;-6.3;77.6
67893;DHT22;54688;52.376;16.744;2023-03-01T03:22:59;-6.4;77.5
67893;DHT22;54688;52.376;16.744;2023-03-01T03:26:01;-6.4;77.1
67893;DHT22;54688;52.376;16.744;2023-03-01T03:29:04;-6.4;77.3
67893;DHT22;54688;52.376;16.744;2023-03-01T03:32:07;-6.5;76.7
67893;DHT22;54688;52.376;16.744;2023-03-01T03:35:09;-6.5;76.1
67893;DHT22;54688;52.376;16.744;2023-03-01T03:38:12;-6.7;75.5
67893;DHT22;54688;52.376;16.744;2023-03-01T03:44:14;-6.7;77.8
67893;DHT22;54688;52.376;16.744;2023-03-01T03:47:17;-6.7;76.8
67893;DHT22;54688;52.376;16.744;2023-03-01T03:50:19;-6.7;77.5
67893;DHT22;54688;52.376;16.744;2023-03-01T03:53:22;-6.7;77
67893;DHT22;54688;52.376;16.744;2023-03-01T03:56:26;-6.7;76.2
67893;DHT22;54688;52.376;16.744;2023-03-01T03:59:28;-6.8;75.8
67893;DHT22;54688;52.376;16.744;2023-03-01T04:02:30;-6.8;75.7
67893;DHT22;54688;52.376;16.744;2023-03-01T04:05:32;-6.9;75.4
67893;DHT22;54688;52.376;16.744;2023-03-01T04:08:35;-6.9;75.7
67893;DHT22;54688;52.376;16.744;2023-03-01T04:11:37;-6.9;76.2
67893;DHT22;54688;52.376;16.744;2023-03-01T04:14:39;-6.9;76.1
67893;DHT22;54688;52.376;16.744;2023-03-01T04:20:42;-7;75.4
67893;DHT22;54688;52.376;16.744;2023-03-01T04:23:45;-7;75.1
67893;DHT22;54688;52.376;16.744;2023-03-01T04:26:47;-7.1;75.3
67893;DHT22;54688;52.376;16.744;2023-03-01T04:29:49;-7.2;75.1
67893;DHT22;54688;52.376;16.744;2023-03-01T04:32:52;-7.2;74.7
67893;DHT22;54688;52.376;16.744;2023-03-01T04:35:54;-7.2;74.8
67893;DHT22;54688;52.376;16.744;2023-03-01T04:38:57;-7.3;75.1
67893;DHT22;54688;52.376;16.744;2023-03-01T04:41:59;-7.2;75.5
67893;DHT22;54688;52.376;16.744;2023-03-01T04:45:01;-7.2;75.6
67893;DHT22;54688;52.376;16.744;2023-03-01T04:48:04;-7.3;75.3
67893;DHT22;54688;52.376;16.744;2023-03-01T04:51:06;-7.3;75
67893;DHT22;54688;52.376;16.744;2023-03-01T04:54:09;-7.3;74.9
67893;DHT22;54688;52.376;16.744;2023-03-01T04:57:11;-7.3;76
67893;DHT22;54688;52.376;16.744;2023-03-01T05:00:15;-7.3;76
67893;DHT22;54688;52.376;16.744;2023-03-01T05:03:17;-7.2;75.9
67893;DHT22;54688;52.376;16.744;2023-03-01T05:06:20;-7.2;76
67893;DHT22;54688;52.376;16.744;2023-03-01T05:09:22;-7.1;76.7
67893;DHT22;54688;52.376;16.744;2023-03-01T05:15:23;-7.1;76.3
67893;DHT22;54688;52.376;16.744;2023-03-01T05:18:26;-7.1;75.8
67893;DHT22;54688;52.376;16.744;2023-03-01T05:21:30;-7.2;75.5
67893;DHT22;54688;52.376;16.744;2023-03-01T05:24:33;-7.2;75.8
67893;DHT22;54688;52.376;16.744;2023-03-01T05:27:36;-7.2;75.6
67893;DHT22;54688;52.376;16.744;2023-03-01T05:30:39;-7.2;75.2
67893;DHT22;54688;52.376;16.744;2023-03-01T05:33:41;-7.3;75.2
67893;DHT22;54688;52.376;16.744;2023-03-01T05:39:42;-7.3;75.5
67893;DHT22;54688;52.376;16.744;2023-03-01T05:42:44;-7.3;75.7
67893;DHT22;54688;52.376;16.744;2023-03-01T05:45:47;-7.3;75.2
67893;DHT22;54688;52.376;16.744;2023-03-01T05:48:49;-7.3;74.8
67893;DHT22;54688;52.376;16.744;2023-03-01T05:51:52;-7.4;74.6
67893;DHT22;54688;52.376;16.744;2023-03-01T05:54:55;-7.4;74.5
67893;DHT22;54688;52.376;16.744;2023-03-01T05:57:58;-7.4;74.5
67893;DHT22;54688;52.376;16.744;2023-03-01T06:01:01;-7.5;74.4
67893;DHT22;54688;52.376;16.744;2023-03-01T06:04:04;-7.5;74.7
67893;DHT22;54688;52.376;16.744;2023-03-01T06:07:07;-7.5;74.7
67893;DHT22;54688;52.376;16.744;2023-03-01T06:10:10;-7.5;74.9
67893;DHT22;54688;52.376;16.744;2023-03-01T06:13:14;-7.4;74.9
67893;DHT22;54688;52.376;16.744;2023-03-01T06:16:16;-7.4;74.8
67893;DHT22;54688;52.376;16.744;2023-03-01T06:19:18;-7.4;75.1
67893;DHT22;54688;52.376;16.744;2023-03-01T06:22:21;-7.3;75.7
67893;DHT22;54688;52.376;16.744;2023-03-01T06:25:24;-7.1;77.6
67893;DHT22;54688;52.376;16.744;2023-03-01T06:28:28;-6.9;79.1
67893;DHT22;54688;52.376;16.744;2023-03-01T06:31:29;-6.7;79.6
67893;DHT22;54688;52.376;16.744;2023-03-01T06:34:31;-6.5;80.1
67893;DHT22;54688;52.376;16.744;2023-03-01T06:37:34;-6.3;80.6
67893;DHT22;54688;52.376;16.744;2023-03-01T06:40:36;-6.2;80.7
67893;DHT22;54688;52.376;16.744;2023-03-01T06:43:38;-6;80.7
67893;DHT22;54688;52.376;16.744;2023-03-01T06:46:40;-5.9;80.8
67893;DHT22;54688;52.376;16.744;2023-03-01T06:49:43;-5.7;81.3
67893;DHT22;54688;52.376;16.744;2023-03-01T06:52:45;-5.5;81.1
67893;DHT22;54688;52.376;16.744;2023-03-01T06:55:47;-5.4;81.3
67893;DHT22;54688;52.376;16.744;2023-03-01T06:58:51;-5.3;80.8
67893;DHT22;54688;52.376;16.744;2023-03-01T07:01:53;-5.2;81.1
67893;DHT22;54688;52.376;16.744;2023-03-01T07:04:55;-5.2;81.3
67893;DHT22;54688;52.376;16.744;2023-03-01T07:07:57;-5;81.4
67893;DHT22;54688;52.376;16.744;2023-03-01T07:11:00;-4.9;80.9
67893;DHT22;54688;52.376;16.744;2023-03-01T07:14:02;-4.8;80.6
67893;DHT22;54688;52.376;16.744;2023-03-01T07:17:04;-4.8;80.7
67893;DHT22;54688;52.376;16.744;2023-03-01T07:20:07;-4.7;80.8
67893;DHT22;54688;52.376;16.744;2023-03-01T07:23:10;-4.6;80.6
67893;DHT22;54688;52.376;16.744;2023-03-01T07:26:13;-4.5;80.5
67893;DHT22;54688;52.376;16.744;2023-03-01T07:29:15;-4.5;79.9
67893;DHT22;54688;52.376;16.744;2023-03-01T07:32:17;-4.4;79.8
67893;DHT22;54688;52.376;16.744;2023-03-01T07:35:19;-4.4;80
67893;DHT22;54688;52.376;16.744;2023-03-01T07:38:21;-4.4;79.2
67893;DHT22;54688;52.376;16.744;2023-03-01T07:41:23;-4.4;78.3
67893;DHT22;54688;52.376;16.744;2023-03-01T07:44:26;-4.4;78
67893;DHT22;54688;52.376;16.744;2023-03-01T07:47:27;-4.5;77.5
67893;DHT22;54688;52.376;16.744;2023-03-01T07:50:30;-4.5;77.4
67893;DHT22;54688;52.376;16.744;2023-03-01T07:53:32;-4.6;77.5
67893;DHT22;54688;52.376;16.744;2023-03-01T07:56:35;-4.5;77.7
67893;DHT22;54688;52.376;16.744;2023-03-01T07:59:37;-4.4;78.9
67893;DHT22;54688;52.376;16.744;2023-03-01T08:02:39;-4.3;78.6
67893;DHT22;54688;52.376;16.744;2023-03-01T08:05:42;-4.3;77.7
67893;DHT22;54688;52.376;16.744;2023-03-01T08:08:44;-4.3;78.2
67893;DHT22;54688;52.376;16.744;2023-03-01T08:11:46;-4.1;79.1
67893;DHT22;54688;52.376;16.744;2023-03-01T08:14:48;-4;79.3
67893;DHT22;54688;52.376;16.744;2023-03-01T08:17:50;-3.9;79.8
67893;DHT22;54688;52.376;16.744;2023-03-01T08:20:53;-3.7;80.1
67893;DHT22;54688;52.376;16.744;2023-03-01T08:23:55;-3.5;80.9
67893;DHT22;54688;52.376;16.744;2023-03-01T08:26:57;-3.3;80.2
67893;DHT22;54688;52.376;16.744;2023-03-01T08:30:00;-3.2;80.4
67893;DHT22;54688;52.376;16.744;2023-03-01T08:33:02;-3.1;79.7
67893;DHT22;54688;52.376;16.744;2023-03-01T08:36:05;-3.1;79.4
67893;DHT22;54688;52.376;16.744;2023-03-01T08:39:08;-2.9;80.5
67893;DHT22;54688;52.376;16.744;2023-03-01T08:42:11;-2.8;81.2
67893;DHT22;54688;52.376;16.744;2023-03-01T08:45:13;-2.6;81
67893;DHT22;54688;52.376;16.744;2023-03-01T08:48:15;-2.4;81.4
67893;DHT22;54688;52.376;16.744;2023-03-01T08:51:17;-2.1;81.6
67893;DHT22;54688;52.376;16.744;2023-03-01T08:54:20;-1.9;80.6
67893;DHT22;54688;52.376;16.744;2023-03-01T08:57:23;-1.7;79.6
67893;DHT22;54688;52.376;16.744;2023-03-01T09:00:26;-1.4;78.6
67893;DHT22;54688;52.376;16.744;2023-03-01T09:03:28;-1.2;77.8
67893;DHT22;54688;52.376;16.744;2023-03-01T09:06:30;-1;77.5
67893;DHT22;54688;52.376;16.744;2023-03-01T09:09:33;-0.9;77
67893;DHT22;54688;52.376;16.744;2023-03-01T09:12:35;-0.7;76.5
67893;DHT22;54688;52.376;16.744;2023-03-01T09:15:38;-0.7;76.1
67893;DHT22;54688;52.376;16.744;2023-03-01T09:21:40;-0.3;74.4
67893;DHT22;54688;52.376;16.744;2023-03-01T09:24:42;-0.2;73.3
67893;DHT22;54688;52.376;16.744;2023-03-01T09:27:44;0;72.9
67893;DHT22;54688;52.376;16.744;2023-03-01T09:30:47;0.2;71.5
67893;DHT22;54688;52.376;16.744;2023-03-01T09:33:50;0.3;70.6
67893;DHT22;54688;52.376;16.744;2023-03-01T09:36:54;0.4;70.8
67893;DHT22;54688;52.376;16.744;2023-03-01T09:39:56;0.5;70.6
67893;DHT22;54688;52.376;16.744;2023-03-01T09:42:59;0.6;69.9
67893;DHT22;54688;52.376;16.744;2023-03-01T09:46:09;0.6;69.2
67893;DHT22;54688;52.376;16.744;2023-03-01T09:49:14;0.8;68.3
67893;DHT22;54688;52.376;16.744;2023-03-01T09:52:21;0.9;68.9
67893;DHT22;54688;52.376;16.744;2023-03-01T09:55:30;0.9;69.5
67893;DHT22;54688;52.376;16.744;2023-03-01T09:58:37;1.1;66
67893;DHT22;54688;52.376;16.744;2023-03-01T10:01:50;1.2;64.9
67893;DHT22;54688;52.376;16.744;2023-03-01T10:05:00;1.3;65
67893;DHT22;54688;52.376;16.744;2023-03-01T10:11:17;1.6;63.5
67893;DHT22;54688;52.376;16.744;2023-03-01T10:14:27;1.7;62.1
67893;DHT22;54688;52.376;16.744;2023-03-01T10:17:36;1.8;62.1
67893;DHT22;54688;52.376;16.744;2023-03-01T10:20:43;2;61.6
67893;DHT22;54688;52.376;16.744;2023-03-01T10:23:49;2.1;60.9
67893;DHT22;54688;52.376;16.744;2023-03-01T10:26:54;2.1;60.9
67893;DHT22;54688;52.376;16.744;2023-03-01T10:30:01;2.2;61.4
67893;DHT22;54688;52.376;16.744;2023-03-01T10:33:15;2.3;60.2
67893;DHT22;54688;52.376;16.744;2023-03-01T10:36:20;2.3;61
67893;DHT22;54688;52.376;16.744;2023-03-01T10:39:24;2.4;60.2
67893;DHT22;54688;52.376;16.744;2023-03-01T10:42:29;2.5;59.8
67893;DHT22;54688;52.376;16.744;2023-03-01T10:45:34;2.5;60.3
67893;DHT22;54688;52.376;16.744;2023-03-01T10:48:38;2.6;60
67893;DHT22;54688;52.376;16.744;2023-03-01T10:51:40;2.7;60.3
67893;DHT22;54688;52.376;16.744;2023-03-01T10:54:43;2.7;59.8
67893;DHT22;54688;52.376;16.744;2023-03-01T10:58:06;2.8;60
67893;DHT22;54688;52.376;16.744;2023-03-01T11:01:23;2.8;60.6
67893;DHT22;54688;52.376;16.744;2023-03-01T11:04:26;2.8;61.2
67893;DHT22;54688;52.376;16.744;2023-03-01T11:07:28;2.8;60.6
67893;DHT22;54688;52.376;16.744;2023-03-01T11:10:32;2.8;59.8
67893;DHT22;54688;52.376;16.744;2023-03-01T11:16:37;3;60.5
67893;DHT22;54688;52.376;16.744;2023-03-01T11:19:40;3.1;59.6
67893;DHT22;54688;52.376;16.744;2023-03-01T11:22:44;3.3;59.7
67893;DHT22;54688;52.376;16.744;2023-03-01T11:25:51;3.3;59.6
67893;DHT22;54688;52.376;16.744;2023-03-01T11:28:58;3.3;59.3
67893;DHT22;54688;52.376;16.744;2023-03-01T11:32:06;3.3;59.4
67893;DHT22;54688;52.376;16.744;2023-03-01T11:35:13;3.4;59.6
67893;DHT22;54688;52.376;16.744;2023-03-01T11:38:20;3.5;59.4
67893;DHT22;54688;52.376;16.744;2023-03-01T11:41:25;3.7;57.9
67893;DHT22;54688;52.376;16.744;2023-03-01T11:44:29;3.7;58.6
67893;DHT22;54688;52.376;16.744;2023-03-01T11:47:40;3.7;58.2
67893;DHT22;54688;52.376;16.744;2023-03-01T11:50:52;3.8;58.8
67893;DHT22;54688;52.376;16.744;2023-03-01T11:54:02;3.8;58.5
67893;DHT22;54688;52.376;16.744;2023-03-01T11:57:16;3.8;58.6
67893;DHT22;54688;52.376;16.744;2023-03-01T12:00:34;3.8;58.2
67893;DHT22;54688;52.376;16.744;2023-03-01T12:03:51;3.9;58.2
67893;DHT22;54688;52.376;16.744;2023-03-01T12:07:05;3.9;58.8
67893;DHT22;54688;52.376;16.744;2023-03-01T12:10:19;4;59
67893;DHT22;54688;52.376;16.744;2023-03-01T12:13:45;4;58.3
67893;DHT22;54688;52.376;16.744;2023-03-01T12:17:03;4.1;57.2
67893;DHT22;54688;52.376;16.744;2023-03-01T12:20:19;4.2;58.3
67893;DHT22;54688;52.376;16.744;2023-03-01T12:23:34;4.2;57.2
67893;DHT22;54688;52.376;16.744;2023-03-01T12:26:53;4.3;57.6
67893;DHT22;54688;52.376;16.744;2023-03-01T12:30:13;4.4;57
67893;DHT22;54688;52.376;16.744;2023-03-01T12:33:22;4.5;57.2
67893;DHT22;54688;52.376;16.744;2023-03-01T12:36:39;4.6;57.3
67893;DHT22;54688;52.376;16.744;2023-03-01T12:39:51;4.7;57.3
67893;DHT22;54688;52.376;16.744;2023-03-01T12:43:08;4.8;58
67893;DHT22;54688;52.376;16.744;2023-03-01T12:46:25;4.8;57.4
67893;DHT22;54688;52.376;16.744;2023-03-01T12:49:38;4.9;56.9
67893;DHT22;54688;52.376;16.744;2023-03-01T12:52:44;5;56.6
67893;DHT22;54688;52.376;16.744;2023-03-01T12:55:50;5;55.8
67893;DHT22;54688;52.376;16.744;2023-03-01T12:58:57;5.1;56.5
67893;DHT22;54688;52.376;16.744;2023-03-01T13:05:26;5.2;55.8
67893;DHT22;54688;52.376;16.744;2023-03-01T13:08:39;5.3;55.8
67893;DHT22;54688;52.376;16.744;2023-03-01T13:11:45;5.3;56
67893;DHT22;54688;52.376;16.744;2023-03-01T13:14:47;5.4;56.3
67893;DHT22;54688;52.376;16.744;2023-03-01T13:17:50;5.4;56.2
67893;DHT22;54688;52.376;16.744;2023-03-01T13:20:55;5.5;56.7
67893;DHT22;54688;52.376;16.744;2023-03-01T13:23:59;5.5;56.6
67893;DHT22;54688;52.376;16.744;2023-03-01T13:27:10;5.6;56.3
67893;DHT22;54688;52.376;16.744;2023-03-01T13:30:44;5.7;56.3
67893;DHT22;54688;52.376;16.744;2023-03-01T13:33:46;5.8;55.7
67893;DHT22;54688;52.376;16.744;2023-03-01T13:36:49;5.9;55.2
67893;DHT22;54688;52.376;16.744;2023-03-01T13:39:51;6;55.3
67893;DHT22;54688;52.376;16.744;2023-03-01T13:42:53;6.1;55.3
67893;DHT22;54688;52.376;16.744;2023-03-01T13:45:56;6.1;54.3
67893;DHT22;54688;52.376;16.744;2023-03-01T13:48:59;6.2;53.9
67893;DHT22;54688;52.376;16.744;2023-03-01T13:52:02;6.3;54.5
67893;DHT22;54688;52.376;16.744;2023-03-01T13:55:06;6.3;54
67893;DHT22;54688;52.376;16.744;2023-03-01T13:58:19;6.4;53.2
67893;DHT22;54688;52.376;16.744;2023-03-01T14:01:25;6.5;52.5
67893;DHT22;54688;52.376;16.744;2023-03-01T14:04:30;6.6;53.3
67893;DHT22;54688;52.376;16.744;2023-03-01T14:07:33;6.7;53.3
67893;DHT22;54688;52.376;16.744;2023-03-01T14:10:37;6.9;53.7
67893;DHT22;54688;52.376;16.744;2023-03-01T14:13:48;7;53.1
67893;DHT22;54688;52.376;16.744;2023-03-01T14:17:05;7.1;53.1
67893;DHT22;54688;52.376;16.744;2023-03-01T14:20:20;7.2;52.2
67893;DHT22;54688;52.376;16.744;2023-03-01T14:23:25;7.3;52.4
67893;DHT22;54688;52.376;16.744;2023-03-01T14:26:28;7.4;51.8
67893;DHT22;54688;52.376;16.744;2023-03-01T14:29:39;7.5;51.6
67893;DHT22;54688;52.376;16.744;2023-03-01T14:32:41;7.5;50.5
67893;DHT22;54688;52.376;16.744;2023-03-01T14:35:51;7.6;50.4
67893;DHT22;54688;52.376;16.744;2023-03-01T14:38:55;7.7;51.1
67893;DHT22;54688;52.376;16.744;2023-03-01T14:41:57;7.7;49.6
67893;DHT22;54688;52.376;16.744;2023-03-01T14:45:00;7.8;49.8
67893;DHT22;54688;52.376;16.744;2023-03-01T14:48:04;7.7;50.2
67893;DHT22;54688;52.376;16.744;2023-03-01T14:51:09;7.8;49.8
67893;DHT22;54688;52.376;16.744;2023-03-01T14:54:19;7.8;49
67893;DHT22;54688;52.376;16.744;2023-03-01T14:57:24;7.9;49.2
67893;DHT22;54688;52.376;16.744;2023-03-01T15:00:28;7.9;49.2
67893;DHT22;54688;52.376;16.744;2023-03-01T15:03:32;8;49.2
67893;DHT22;54688;52.376;16.744;2023-03-01T15:06:36;8;48.5
67893;DHT22;54688;52.376;16.744;2023-03-01T15:09:40;8;48.5
67893;DHT22;54688;52.376;16.744;2023-03-01T15:12:42;8.1;48.8
67893;DHT22;54688;52.376;16.744;2023-03-01T15:15:44;8.1;48.4
67893;DHT22;54688;52.376;16.744;2023-03-01T15:18:49;8.2;46.9
67893;DHT22;54688;52.376;16.744;2023-03-01T15:21:54;8.2;47.8
67893;DHT22;54688;52.376;16.744;2023-03-01T15:24:57;8.2;48.4
67893;DHT22;54688;52.376;16.744;2023-03-01T15:28:00;8.2;48.5
67893;DHT22;54688;52.376;16.744;2023-03-01T15:31:04;8.2;47.5
67893;DHT22;54688;52.376;16.744;2023-03-01T15:34:21;8.2;48.6
67893;DHT22;54688;52.376;16.744;2023-03-01T15:37:43;8.3;48.4
67893;DHT22;54688;52.376;16.744;2023-03-01T15:40:48;8.4;48
67893;DHT22;54688;52.376;16.744;2023-03-01T15:43:51;8.4;47.5
67893;DHT22;54688;52.376;16.744;2023-03-01T15:46:53;8.3;47.6
67893;DHT22;54688;52.376;16.744;2023-03-01T15:49:56;8.2;47.8
67893;DHT22;54688;52.376;16.744;2023-03-01T15:53:00;8.1;48.1
67893;DHT22;54688;52.376;16.744;2023-03-01T15:56:07;8;48.5
67893;DHT22;54688;52.376;16.744;2023-03-01T15:59:08;7.8;48.7
67893;DHT22;54688;52.376;16.744;2023-03-01T16:02:12;7.7;49
67893;DHT22;54688;52.376;16.744;2023-03-01T16:05:16;7.6;49.9
67893;DHT22;54688;52.376;16.744;2023-03-01T16:08:21;7.5;49.9
67893;DHT22;54688;52.376;16.744;2023-03-01T16:11:23;7.4;49.7
67893;DHT22;54688;52.376;16.744;2023-03-01T16:14:25;7.2;49.7
67893;DHT22;54688;52.376;16.744;2023-03-01T16:17:27;7;51.4
67893;DHT22;54688;52.376;16.744;2023-03-01T16:20:29;6.8;51.4
67893;DHT22;54688;52.376;16.744;2023-03-01T16:23:32;6.7;52.8
67893;DHT22;54688;52.376;16.744;2023-03-01T16:26:34;6.5;53.1
67893;DHT22;54688;52.376;16.744;2023-03-01T16:29:36;6.3;54.5
67893;DHT22;54688;52.376;16.744;2023-03-01T16:35:38;6;55.7
67893;DHT22;54688;52.376;16.744;2023-03-01T16:38:40;5.8;56.6
67893;DHT22;54688;52.376;16.744;2023-03-01T16:41:43;5.7;57.4
67893;DHT22;54688;52.376;16.744;2023-03-01T16:44:45;5.4;57.8
67893;DHT22;54688;52.376;16.744;2023-03-01T16:47:47;5.3;58.1
67893;DHT22;54688;52.376;16.744;2023-03-01T16:50:57;5.1;58.2
67893;DHT22;54688;52.376;16.744;2023-03-01T16:54:00;5;58
67893;DHT22;54688;52.376;16.744;2023-03-01T16:57:02;4.8;59.2
67893;DHT22;54688;52.376;16.744;2023-03-01T17:00:07;4.7;60.3
67893;DHT22;54688;52.376;16.744;2023-03-01T17:03:12;4.5;60.4
67893;DHT22;54688;52.376;16.744;2023-03-01T17:06:14;4.4;60.9
67893;DHT22;54688;52.376;16.744;2023-03-01T17:09:18;4.2;61
67893;DHT22;54688;52.376;16.744;2023-03-01T17:12:20;4.1;62
67893;DHT22;54688;52.376;16.744;2023-03-01T17:15:22;3.9;62.5
67893;DHT22;54688;52.376;16.744;2023-03-01T17:18:24;3.8;62.9
67893;DHT22;54688;52.376;16.744;2023-03-01T17:21:26;3.7;62.9
67893;DHT22;54688;52.376;16.744;2023-03-01T17:24:31;3.6;63.6
67893;DHT22;54688;52.376;16.744;2023-03-01T17:27:34;3.5;64.5
67893;DHT22;54688;52.376;16.744;2023-03-01T17:30:38;3.4;64
67893;DHT22;54688;52.376;16.744;2023-03-01T17:33:43;3.3;64.3
67893;DHT22;54688;52.376;16.744;2023-03-01T17:36:45;3.1;65.4
67893;DHT22;54688;52.376;16.744;2023-03-01T17:39:46;3;65.3
67893;DHT22;54688;52.376;16.744;2023-03-01T17:42:49;2.9;65.2
67893;DHT22;54688;52.376;16.744;2023-03-01T17:45:51;2.8;66.4
67893;DHT22;54688;52.376;16.744;2023-03-01T17:48:53;2.7;65.6
67893;DHT22;54688;52.376;16.744;2023-03-01T17:51:55;2.6;65.9
67893;DHT22;54688;52.376;16.744;2023-03-01T17:54:58;2.4;66.6
67893;DHT22;54688;52.376;16.744;2023-03-01T17:58:00;2.3;66.7
67893;DHT22;54688;52.376;16.744;2023-03-01T18:01:06;2.2;67.7
67893;DHT22;54688;52.376;16.744;2023-03-01T18:04:10;2.1;68.5
67893;DHT22;54688;52.376;16.744;2023-03-01T18:07:13;2;68.8
67893;DHT22;54688;52.376;16.744;2023-03-01T18:10:15;2;69.3
67893;DHT22;54688;52.376;16.744;2023-03-01T18:13:17;1.9;68.4
67893;DHT22;54688;52.376;16.744;2023-03-01T18:16:21;1.9;69.5
67893;DHT22;54688;52.376;16.744;2023-03-01T18:19:23;1.9;70
67893;DHT22;54688;52.376;16.744;2023-03-01T18:22:25;1.8;70.1
67893;DHT22;54688;52.376;16.744;2023-03-01T18:25:28;1.7;70.2
67893;DHT22;54688;52.376;16.744;2023-03-01T18:31:30;1.6;70.4
67893;DHT22;54688;52.376;16.744;2023-03-01T18:34:32;1.5;70.6
67893;DHT22;54688;52.376;16.744;2023-03-01T18:37:34;1.5;70.5
67893;DHT22;54688;52.376;16.744;2023-03-01T18:40:36;1.4;70.3
67893;DHT22;54688;52.376;16.744;2023-03-01T18:43:38;1.3;70
67893;DHT22;54688;52.376;16.744;2023-03-01T18:46:40;1.2;69.6
67893;DHT22;54688;52.376;16.744;2023-03-01T18:49:42;1;70.5
67893;DHT22;54688;52.376;16.744;2023-03-01T18:52:44;1;70.2
67893;DHT22;54688;52.376;16.744;2023-03-01T18:55:46;0.9;70
67893;DHT22;54688;52.376;16.744;2023-03-01T18:58:49;0.8;70.8
67893;DHT22;54688;52.376;16.744;2023-03-01T19:01:51;0.7;71.1
67893;DHT22;54688;52.376;16.744;2023-03-01T19:04:53;0.6;71.4
67893;DHT22;54688;52.376;16.744;2023-03-01T19:07:55;0.6;71.8
67893;DHT22;54688;52.376;16.744;2023-03-01T19:11:01;0.5;71.7
67893;DHT22;54688;52.376;16.744;2023-03-01T19:14:05;0.4;71.2
67893;DHT22;54688;52.376;16.744;2023-03-01T19:17:07;0.3;71.1
67893;DHT22;54688;52.376;16.744;2023-03-01T19:20:10;0.3;71.7
67893;DHT22;54688;52.376;16.744;2023-03-01T19:23:13;0.2;71.8
67893;DHT22;54688;52.376;16.744;2023-03-01T19:26:16;0.1;71.5
67893;DHT22;54688;52.376;16.744;2023-03-01T19:29:19;0.1;71.9
67893;DHT22;54688;52.376;16.744;2023-03-01T19:32:22;0;72.1
67893;DHT22;54688;52.376;16.744;2023-03-01T19:35:24;-0.1;72.5
67893;DHT22;54688;52.376;16.744;2023-03-01T19:38:26;-0.1;72.7
67893;DHT22;54688;52.376;16.744;2023-03-01T19:41:30;-0.2;72.6
67893;DHT22;54688;52.376;16.744;2023-03-01T19:44:33;-0.2;72.5
67893;DHT22;54688;52.376;16.744;2023-03-01T19:47:36;-0.3;72.7
67893;DHT22;54688;52.376;16.744;2023-03-01T19:50:37;-0.3;73.1
67893;DHT22;54688;52.376;16.744;2023-03-01T19:53:40;-0.4;73.4
67893;DHT22;54688;52.376;16.744;2023-03-01T19:56:42;-0.4;73.5
67893;DHT22;54688;52.376;16.744;2023-03-01T19:59:45;-0.5;74.2
67893;DHT22;54688;52.376;16.744;2023-03-01T20:02:47;-0.5;74.3
67893;DHT22;54688;52.376;16.744;2023-03-01T20:05:50;-0.6;74
67893;DHT22;54688;52.376;16.744;2023-03-01T20:08:52;-0.6;74.2
67893;DHT22;54688;52.376;16.744;2023-03-01T20:11:55;-0.6;75.4
67893;DHT22;54688;52.376;16.744;2023-03-01T20:14:57;-0.7;74.2
67893;DHT22;54688;52.376;16.744;2023-03-01T20:17:59;-0.7;74.3
67893;DHT22;54688;52.376;16.744;2023-03-01T20:21:02;-0.7;74.5
67893;DHT22;54688;52.376;16.744;2023-03-01T20:24:05;-0.8;74.3
67893;DHT22;54688;52.376;16.744;2023-03-01T20:27:08;-0.8;75
67893;DHT22;54688;52.376;16.744;2023-03-01T20:30:12;-0.8;75.2
67893;DHT22;54688;52.376;16.744;2023-03-01T20:33:14;-0.9;75.4
67893;DHT22;54688;52.376;16.744;2023-03-01T20:36:16;-0.9;75.7